Time;durP1;ratioP1;P1;durP2;ratioP2;P2;SDS_P1;SDS_P2;PMS_P1;PMS_P2;Temp;Humidity;BMP_temperature;BMP_pressure;BME280_temperature;BME280_humidity;BME280_pressure;Samples;Min_cycle;Max_cycle;Signal;HPM_P1;HPM_P2
2024/01/21 00:02:21;;;;;;;11.27;7.27;;;2.00;1.00;;;;;;5085052;28;20176;-81
2024/01/21 00:04:49;;;;;;;11.23;7.10;;;2.00;1.00;;;;;;5080797;28;20539;-82
2024/01/21 00:07:15;;;;;;;8.23;5.77;;;2.10;1.00;;;;;;5084459;28;20621;-82
2024/01/21 00:09:41;;;;;;;10.63;6.33;;;2.10;1.00;;;;;;5085100;28;20180;-81
2024/01/21 00:12:06;;;;;;;8.43;5.53;;;2.10;1.00;;;;;;5082980;28;20183;-83
2024/01/21 00:14:32;;;;;;;8.63;5.80;;;2.30;1.00;;;;;;5081910;28;20532;-82
2024/01/21 00:16:58;;;;;;;11.13;6.80;;;2.10;1.00;;;;;;5083331;28;20248;-82
2024/01/21 00:19:23;;;;;;;11.50;6.90;;;2.10;1.00;;;;;;5082856;28;20263;-83
2024/01/21 00:21:49;;;;;;;9.67;6.23;;;2.20;1.00;;;;;;5082567;28;20544;-81
2024/01/21 00:24:14;;;;;;;9.13;5.83;;;2.10;1.00;;;;;;5083736;28;20188;-81
2024/01/21 00:26:40;;;;;;;10.23;6.43;;;2.20;1.00;;;;;;5085328;28;20215;-81
2024/01/21 00:29:06;;;;;;;10.33;6.83;;;2.10;1.00;;;;;;5084066;28;20169;-82
2024/01/21 00:31:34;;;;;;;9.03;6.43;;;2.10;1.00;;;;;;5092031;28;20168;-81
2024/01/21 00:33:59;;;;;;;10.63;7.43;;;2.20;1.00;;;;;;5095917;28;20178;-82
2024/01/21 00:36:27;;;;;;;10.60;6.47;;;2.20;1.00;;;;;;5076977;28;20180;-80
2024/01/21 00:38:52;;;;;;;9.93;6.50;;;2.20;1.00;;;;;;5073559;28;20173;-82
2024/01/21 00:41:18;;;;;;;9.60;6.97;;;2.30;1.00;;;;;;5073963;28;20179;-82
2024/01/21 00:43:43;;;;;;;8.93;5.83;;;2.20;1.00;;;;;;5074218;28;20179;-82
2024/01/21 00:46:09;;;;;;;10.80;5.37;;;2.20;1.00;;;;;;5072946;28;20291;-81
2024/01/21 00:48:35;;;;;;;10.27;6.20;;;2.20;1.00;;;;;;5071680;28;20178;-81
2024/01/21 00:51:04;;;;;;;9.10;5.70;;;2.20;1.00;;;;;;5072634;28;20168;-81
2024/01/21 00:53:29;;;;;;;8.83;6.47;;;2.30;1.00;;;;;;5074786;28;20168;-81
2024/01/21 00:55:55;;;;;;;8.37;6.13;;;2.30;1.00;;;;;;5071860;28;20701;-81
2024/01/21 00:58:20;;;;;;;9.13;6.67;;;2.40;1.00;;;;;;5074783;28;20711;-81
2024/01/21 01:00:46;;;;;;;9.33;6.10;;;2.40;1.00;;;;;;5073457;28;20314;-82
2024/01/21 01:03:12;;;;;;;10.00;6.63;;;2.40;1.00;;;;;;5071702;28;20168;-82
2024/01/21 01:05:37;;;;;;;8.50;5.77;;;2.40;1.00;;;;;;5073669;28;20223;-82
2024/01/21 01:08:03;;;;;;;11.77;7.40;;;2.40;1.00;;;;;;5073475;28;20230;-82
2024/01/21 01:10:29;;;;;;;9.87;6.13;;;2.40;1.00;;;;;;5073986;28;20175;-82
2024/01/21 01:12:55;;;;;;;10.67;7.30;;;2.40;1.00;;;;;;5073089;28;20168;-82
2024/01/21 01:15:21;;;;;;;11.20;6.40;;;2.40;1.00;;;;;;5072828;28;20646;-81
2024/01/21 01:17:47;;;;;;;8.30;6.00;;;2.40;1.00;;;;;;5072558;28;20253;-82
2024/01/21 01:20:13;;;;;;;11.67;6.80;;;2.40;1.00;;;;;;5072294;28;20204;-81
2024/01/21 01:22:39;;;;;;;8.50;6.17;;;2.40;1.00;;;;;;5072146;28;20830;-83
2024/01/21 01:25:08;;;;;;;8.97;5.93;;;2.40;1.00;;;;;;5071866;28;20168;-83
2024/01/21 01:27:34;;;;;;;8.80;6.20;;;2.40;1.00;;;;;;5072758;28;20212;-82
2024/01/21 01:29:59;;;;;;;9.60;6.10;;;2.40;1.00;;;;;;5072610;28;20508;-82
2024/01/21 01:32:25;;;;;;;11.23;6.50;;;2.40;1.00;;;;;;5073330;28;20596;-82
2024/01/21 01:34:54;;;;;;;8.90;5.53;;;2.50;1.00;;;;;;5072813;28;20172;-81
2024/01/21 01:37:23;;;;;;;7.97;5.80;;;2.40;1.00;;;;;;5073034;28;20211;-82
2024/01/21 01:39:49;;;;;;;9.33;6.07;;;2.50;1.00;;;;;;5071528;28;20176;-82
2024/01/21 01:42:15;;;;;;;8.17;5.43;;;2.50;1.00;;;;;;5072360;28;20187;-82
2024/01/21 01:44:41;;;;;;;10.03;6.73;;;2.50;1.00;;;;;;5072473;28;20168;-81
2024/01/21 01:47:10;;;;;;;12.23;6.57;;;2.50;1.00;;;;;;5071914;28;20249;-82
2024/01/21 01:49:41;;;;;;;9.40;6.00;;;2.50;1.00;;;;;;5072885;28;20259;-81
2024/01/21 01:52:10;;;;;;;7.87;5.70;;;2.50;1.00;;;;;;5071874;28;20168;-81
2024/01/21 01:54:37;;;;;;;8.23;5.63;;;2.50;1.00;;;;;;5071669;28;20172;-80
2024/01/21 01:57:03;;;;;;;7.73;5.60;;;2.50;1.00;;;;;;5070938;28;20188;-81
2024/01/21 01:59:31;;;;;;;8.57;5.27;;;2.50;1.00;;;;;;5072575;28;20535;-81
2024/01/21 02:01:57;;;;;;;7.67;5.17;;;2.50;1.00;;;;;;5072227;28;20175;-82
2024/01/21 02:04:23;;;;;;;8.23;5.50;;;2.50;1.00;;;;;;5072619;28;20164;-82
2024/01/21 02:06:49;;;;;;;10.63;5.77;;;2.60;1.00;;;;;;5070371;28;20294;-82
2024/01/21 02:09:15;;;;;;;8.47;5.40;;;2.60;1.00;;;;;;5070685;28;20276;-83
2024/01/21 02:11:40;;;;;;;8.73;5.27;;;2.60;1.00;;;;;;5072347;28;20184;-82
2024/01/21 02:14:06;;;;;;;6.33;4.60;;;2.60;1.00;;;;;;5075266;28;20664;-81
2024/01/21 02:16:32;;;;;;;7.20;4.90;;;2.60;1.00;;;;;;5081025;28;20192;-81
2024/01/21 02:18:58;;;;;;;5.77;4.20;;;2.70;1.00;;;;;;5070998;28;20715;-83
2024/01/21 02:21:24;;;;;;;9.17;5.43;;;2.70;1.00;;;;;;5070482;28;20169;-83
2024/01/21 02:23:49;;;;;;;5.50;4.00;;;2.70;1.00;;;;;;5070829;28;20271;-83
2024/01/21 02:26:15;;;;;;;7.80;4.57;;;2.80;1.00;;;;;;5070315;28;20207;-81
2024/01/21 02:28:40;;;;;;;6.37;4.67;;;2.70;1.00;;;;;;5069875;28;20919;-82
2024/01/21 02:31:06;;;;;;;6.97;3.97;;;2.70;1.00;;;;;;5070467;28;20578;-82
2024/01/21 02:33:32;;;;;;;6.70;4.60;;;2.70;1.00;;;;;;5071968;28;20217;-83
2024/01/21 02:35:57;;;;;;;6.40;4.43;;;2.70;1.00;;;;;;5069778;28;20172;-81
2024/01/21 02:38:23;;;;;;;6.33;4.17;;;2.70;1.00;;;;;;5070342;28;20204;-81
2024/01/21 02:40:49;;;;;;;6.23;4.53;;;2.70;1.00;;;;;;5070491;28;20233;-82
2024/01/21 02:43:14;;;;;;;5.80;4.80;;;2.70;1.00;;;;;;5071190;28;20176;-80
2024/01/21 02:45:40;;;;;;;7.07;4.90;;;2.70;1.00;;;;;;5069367;28;20197;-80
2024/01/21 02:48:06;;;;;;;6.07;4.47;;;2.80;1.00;;;;;;5070071;28;20897;-82
2024/01/21 02:50:31;;;;;;;5.80;4.17;;;2.70;1.00;;;;;;5071370;28;20621;-82
2024/01/21 02:52:57;;;;;;;6.07;4.30;;;2.70;1.00;;;;;;5069870;28;20210;-83
2024/01/21 02:55:23;;;;;;;7.07;4.83;;;2.80;1.00;;;;;;5069782;28;20172;-80
2024/01/21 02:57:48;;;;;;;7.30;4.30;;;2.70;1.00;;;;;;5029812;28;1155569;-81
2024/01/21 03:00:14;;;;;;;6.77;4.50;;;2.80;1.00;;;;;;5070750;28;20172;-81
2024/01/21 03:02:40;;;;;;;6.47;4.60;;;2.80;1.00;;;;;;5071202;28;20256;-80
2024/01/21 03:05:06;;;;;;;7.33;4.70;;;2.80;1.00;;;;;;5071218;28;20187;-81
2024/01/21 03:07:31;;;;;;;6.23;4.70;;;2.80;1.00;;;;;;5069254;28;20220;-81
2024/01/21 03:09:57;;;;;;;7.00;4.80;;;2.90;1.00;;;;;;5072604;28;20207;-80
2024/01/21 03:12:23;;;;;;;7.07;4.57;;;2.90;1.00;;;;;;5069545;28;20180;-81
2024/01/21 03:14:49;;;;;;;6.87;4.60;;;2.80;1.00;;;;;;5069709;28;20183;-81
2024/01/21 03:17:14;;;;;;;7.00;4.60;;;2.80;1.00;;;;;;5070684;28;20269;-83
2024/01/21 03:19:40;;;;;;;6.90;4.97;;;2.80;1.00;;;;;;5070656;28;20172;-81
2024/01/21 03:22:06;;;;;;;6.73;4.33;;;2.80;1.00;;;;;;5069842;28;20180;-81
2024/01/21 03:24:31;;;;;;;6.27;4.60;;;2.80;1.00;;;;;;5070610;28;20183;-80
2024/01/21 03:26:57;;;;;;;5.90;4.40;;;2.80;1.00;;;;;;5071102;28;20219;-81
2024/01/21 03:29:23;;;;;;;9.43;5.13;;;2.80;1.00;;;;;;5070545;28;20179;-81
2024/01/21 03:31:49;;;;;;;8.10;5.17;;;2.80;1.00;;;;;;5069812;28;20180;-80
2024/01/21 03:34:15;;;;;;;7.00;4.50;;;2.80;1.00;;;;;;5070303;28;20168;-81
2024/01/21 03:36:40;;;;;;;7.20;4.77;;;2.80;1.00;;;;;;5070421;28;20191;-81
2024/01/21 03:39:06;;;;;;;8.20;4.30;;;2.90;1.00;;;;;;5071240;28;20544;-81
2024/01/21 03:41:32;;;;;;;6.83;4.63;;;2.90;1.00;;;;;;5070378;28;20611;-80
2024/01/21 03:43:57;;;;;;;8.20;4.70;;;2.90;1.00;;;;;;5070481;28;20678;-82
2024/01/21 03:46:23;;;;;;;7.37;4.93;;;2.80;1.00;;;;;;5072014;28;20211;-83
2024/01/21 03:48:49;;;;;;;8.10;4.80;;;2.90;1.00;;;;;;5070901;28;20174;-82
2024/01/21 03:51:15;;;;;;;7.70;5.50;;;2.90;1.00;;;;;;5070920;28;20263;-82
2024/01/21 03:53:41;;;;;;;7.47;4.73;;;2.90;1.00;;;;;;5071398;28;20176;-81
2024/01/21 03:56:07;;;;;;;7.20;5.10;;;2.90;1.00;;;;;;5070223;28;20537;-81
2024/01/21 03:58:33;;;;;;;9.27;5.10;;;2.80;1.00;;;;;;5074177;28;20251;-81
2024/01/21 04:00:59;;;;;;;7.33;5.47;;;2.90;1.00;;;;;;5074410;28;20172;-81
2024/01/21 04:03:25;;;;;;;7.67;4.83;;;2.90;1.00;;;;;;5073654;28;20176;-80
2024/01/21 04:05:50;;;;;;;8.47;4.93;;;2.80;1.00;;;;;;5074499;28;20199;-82
2024/01/21 04:08:17;;;;;;;8.23;6.10;;;2.80;1.00;;;;;;5074156;28;20659;-81
2024/01/21 04:10:42;;;;;;;7.27;5.13;;;2.80;1.00;;;;;;5074185;28;20229;-81
2024/01/21 04:13:09;;;;;;;7.53;5.27;;;2.80;1.00;;;;;;5073439;28;20172;-82
2024/01/21 04:15:34;;;;;;;9.07;5.37;;;2.70;1.00;;;;;;5074946;28;20169;-81
2024/01/21 04:18:00;;;;;;;7.13;4.93;;;2.70;1.00;;;;;;5073350;28;20203;-82
2024/01/21 04:20:26;;;;;;;8.00;5.90;;;2.80;1.00;;;;;;5073665;28;20538;-82
2024/01/21 04:22:52;;;;;;;8.20;6.00;;;2.80;1.00;;;;;;5072847;28;20222;-82
2024/01/21 04:25:18;;;;;;;8.93;6.07;;;2.70;1.00;;;;;;5072660;28;20169;-83
2024/01/21 04:27:43;;;;;;;8.93;5.70;;;2.70;1.00;;;;;;5072671;28;20253;-81
2024/01/21 04:30:09;;;;;;;8.10;6.03;;;2.70;1.00;;;;;;5072955;28;20586;-82
2024/01/21 04:32:35;;;;;;;9.40;6.03;;;2.60;1.00;;;;;;5072716;28;20305;-80
2024/01/21 04:35:00;;;;;;;8.47;5.57;;;2.40;1.00;;;;;;5072571;28;20224;-80
2024/01/21 04:37:26;;;;;;;8.87;6.27;;;2.60;1.00;;;;;;5073580;28;20180;-80
2024/01/21 04:39:52;;;;;;;7.77;6.03;;;2.60;1.00;;;;;;5073418;28;20184;-80
2024/01/21 04:42:17;;;;;;;9.43;6.03;;;2.50;1.00;;;;;;5073069;28;20177;-82
2024/01/21 04:44:43;;;;;;;7.57;6.10;;;2.50;1.00;;;;;;5072657;28;20188;-82
2024/01/21 04:47:08;;;;;;;9.83;6.23;;;2.50;1.00;;;;;;5072995;28;20203;-80
2024/01/21 04:49:34;;;;;;;8.13;5.80;;;2.50;1.00;;;;;;5072527;28;20168;-80
2024/01/21 04:52:01;;;;;;;9.03;5.93;;;2.50;1.00;;;;;;5076332;28;20179;-82
2024/01/21 04:54:26;;;;;;;9.33;5.87;;;2.50;1.00;;;;;;5072731;28;20636;-82
2024/01/21 04:56:52;;;;;;;8.90;6.50;;;2.50;1.00;;;;;;5073952;28;20192;-80
2024/01/21 04:59:18;;;;;;;8.43;5.77;;;2.50;1.00;;;;;;5073244;28;20164;-81
2024/01/21 05:01:47;;;;;;;9.63;6.40;;;2.50;1.00;;;;;;5071860;28;20173;-81
2024/01/21 05:04:13;;;;;;;10.00;5.93;;;2.50;1.00;;;;;;5072967;28;20176;-80
2024/01/21 05:06:38;;;;;;;8.57;5.80;;;2.50;1.00;;;;;;5077842;28;20207;-81
2024/01/21 05:09:04;;;;;;;8.27;6.00;;;2.50;1.00;;;;;;5092321;28;20186;-80
2024/01/21 05:11:29;;;;;;;7.03;5.13;;;2.50;1.00;;;;;;5092548;28;20271;-80
2024/01/21 05:13:56;;;;;;;7.90;5.20;;;2.50;1.00;;;;;;5093301;28;20230;-81
2024/01/21 05:16:21;;;;;;;8.67;5.63;;;2.50;1.00;;;;;;5092432;28;20232;-81
2024/01/21 05:18:47;;;;;;;8.50;5.50;;;2.50;1.00;;;;;;5091798;28;20171;-81
2024/01/21 05:21:19;;;;;;;7.33;5.27;;;2.50;1.00;;;;;;5093078;28;20570;-80
2024/01/21 05:23:45;;;;;;;8.57;5.47;;;2.60;1.00;;;;;;5091975;28;20267;-80
2024/01/21 05:26:10;;;;;;;8.23;5.40;;;2.60;1.00;;;;;;5092816;28;20294;-80
2024/01/21 05:28:36;;;;;;;10.43;5.77;;;2.60;1.00;;;;;;5092749;28;20163;-80
2024/01/21 05:31:02;;;;;;;7.43;5.57;;;2.60;1.00;;;;;;5100754;28;20172;-81
2024/01/21 05:33:28;;;;;;;7.37;5.57;;;2.70;1.00;;;;;;5102835;28;20235;-82
2024/01/21 05:35:53;;;;;;;6.40;4.83;;;2.70;1.00;;;;;;5092447;28;20229;-82
2024/01/21 05:38:20;;;;;;;8.83;5.60;;;2.70;1.00;;;;;;5091555;28;20176;-80
2024/01/21 05:40:46;;;;;;;7.40;5.00;;;2.70;1.00;;;;;;5091808;28;20187;-80
2024/01/21 05:43:11;;;;;;;6.73;4.70;;;2.80;1.00;;;;;;5092483;28;20658;-80
2024/01/21 05:45:37;;;;;;;7.27;4.93;;;2.70;1.00;;;;;;5092624;28;20168;-81
2024/01/21 05:48:03;;;;;;;6.43;4.43;;;2.70;1.00;;;;;;5092157;28;20597;-81
2024/01/21 05:50:29;;;;;;;7.60;5.33;;;2.70;1.00;;;;;;5092214;28;20179;-79
2024/01/21 05:52:54;;;;;;;7.73;4.57;;;2.70;1.00;;;;;;5092112;28;20543;-82
2024/01/21 05:55:20;;;;;;;7.63;4.87;;;2.70;1.00;;;;;;5093251;28;20586;-80
2024/01/21 05:57:46;;;;;;;8.50;5.20;;;2.70;1.00;;;;;;5091429;28;20187;-79
2024/01/21 06:00:12;;;;;;;5.77;4.60;;;2.70;1.00;;;;;;5091880;28;20221;-80
2024/01/21 06:02:38;;;;;;;8.60;4.90;;;2.70;1.00;;;;;;5093251;28;20650;-82
2024/01/21 06:05:04;;;;;;;6.90;4.80;;;2.70;1.00;;;;;;5092694;28;20167;-81
2024/01/21 06:07:29;;;;;;;7.50;4.80;;;2.70;1.00;;;;;;5092106;28;20211;-80
2024/01/21 06:09:55;;;;;;;7.83;5.10;;;2.80;1.00;;;;;;5091395;28;20527;-80
2024/01/21 06:12:21;;;;;;;8.37;5.10;;;2.80;1.00;;;;;;5091041;28;20175;-81
2024/01/21 06:14:47;;;;;;;7.00;4.83;;;2.80;1.00;;;;;;5090315;28;20686;-81
2024/01/21 06:17:12;;;;;;;6.10;4.70;;;2.80;1.00;;;;;;5091527;28;20191;-81
2024/01/21 06:19:38;;;;;;;7.17;4.90;;;2.80;1.00;;;;;;5089757;28;20171;-80
2024/01/21 06:22:04;;;;;;;7.07;5.20;;;2.80;1.00;;;;;;5091722;28;20217;-81
2024/01/21 06:24:29;;;;;;;8.33;5.07;;;2.80;1.00;;;;;;5092261;28;20758;-81
2024/01/21 06:26:55;;;;;;;5.80;4.30;;;2.80;1.00;;;;;;5091463;28;20207;-81
2024/01/21 06:29:21;;;;;;;6.60;5.23;;;2.80;1.00;;;;;;5092642;28;20208;-81
2024/01/21 06:31:46;;;;;;;6.23;4.53;;;2.70;1.00;;;;;;5091898;28;20631;-82
2024/01/21 06:34:12;;;;;;;6.10;4.40;;;2.80;1.00;;;;;;5090570;28;20176;-82
2024/01/21 06:36:38;;;;;;;7.60;4.80;;;2.90;1.00;;;;;;5092446;28;20183;-81
2024/01/21 06:39:04;;;;;;;6.13;4.57;;;2.80;1.00;;;;;;5090544;28;20486;-80
2024/01/21 06:41:29;;;;;;;8.93;4.97;;;2.80;1.00;;;;;;5091694;28;20179;-81
2024/01/21 06:43:55;;;;;;;7.37;4.60;;;2.80;1.00;;;;;;5091597;28;20163;-81
2024/01/21 06:46:20;;;;;;;8.10;5.43;;;2.80;1.00;;;;;;5091653;28;20207;-81
2024/01/21 06:48:46;;;;;;;7.73;4.87;;;2.80;1.00;;;;;;5091574;28;20218;-81
2024/01/21 06:51:21;;;;;;;6.37;4.53;;;2.80;1.00;;;;;;5090448;28;20171;-81
2024/01/21 06:53:47;;;;;;;6.40;4.70;;;2.90;1.00;;;;;;5090368;28;20178;-81
2024/01/21 06:56:12;;;;;;;9.43;5.80;;;2.90;1.00;;;;;;5091219;28;20172;-81
2024/01/21 06:58:38;;;;;;;7.60;5.73;;;2.90;1.00;;;;;;5090213;28;20273;-81
2024/01/21 07:01:04;;;;;;;5.90;4.83;;;2.90;1.00;;;;;;5091514;28;20232;-81
2024/01/21 07:03:29;;;;;;;7.90;5.80;;;2.90;1.00;;;;;;5091221;28;20168;-81
2024/01/21 07:05:55;;;;;;;7.23;5.20;;;2.90;1.00;;;;;;5091207;28;20678;-81
2024/01/21 07:08:21;;;;;;;7.47;5.33;;;2.90;1.00;;;;;;5101144;28;20182;-80
2024/01/21 07:10:47;;;;;;;7.53;5.20;;;2.80;1.00;;;;;;5102512;28;20194;-81
2024/01/21 07:13:12;;;;;;;7.80;5.27;;;2.80;1.00;;;;;;5091600;28;20163;-80
2024/01/21 07:15:39;;;;;;;7.40;4.43;;;2.80;1.00;;;;;;5090408;28;20639;-81
2024/01/21 07:18:06;;;;;;;9.23;4.90;;;2.80;1.00;;;;;;5091210;28;20183;-82
2024/01/21 07:20:32;;;;;;;5.80;4.37;;;2.80;1.00;;;;;;5091202;28;20172;-81
2024/01/21 07:22:58;;;;;;;7.47;5.10;;;2.80;1.00;;;;;;5091051;28;20175;-82
2024/01/21 07:25:24;;;;;;;6.73;4.53;;;2.80;1.00;;;;;;5090654;28;20254;-80
2024/01/21 07:27:50;;;;;;;7.00;5.43;;;2.80;1.00;;;;;;5089992;28;20574;-81
2024/01/21 07:30:17;;;;;;;8.53;5.60;;;2.70;1.00;;;;;;5091513;28;20168;-81
2024/01/21 07:32:42;;;;;;;8.17;5.57;;;2.80;1.00;;;;;;5093730;28;20191;-81
2024/01/21 07:35:11;;;;;;;7.33;5.33;;;2.70;1.00;;;;;;5094165;28;20667;-81
2024/01/21 07:37:37;;;;;;;6.77;5.10;;;2.70;1.00;;;;;;5095983;28;20203;-81
2024/01/21 07:40:04;;;;;;;8.40;5.90;;;2.70;1.00;;;;;;5094740;28;20232;-81
2024/01/21 07:42:30;;;;;;;7.47;5.33;;;2.70;1.00;;;;;;5093808;28;20537;-81
2024/01/21 07:44:55;;;;;;;7.60;5.80;;;2.70;1.00;;;;;;5093609;28;20575;-82
2024/01/21 07:47:21;;;;;;;10.13;5.20;;;2.70;1.00;;;;;;5094297;28;20302;-82
2024/01/21 07:49:47;;;;;;;8.57;5.83;;;2.70;1.00;;;;;;5094446;28;20170;-82
2024/01/21 07:52:13;;;;;;;7.07;5.23;;;2.80;1.00;;;;;;5094641;28;20247;-81
2024/01/21 07:54:38;;;;;;;7.63;5.30;;;2.70;1.00;;;;;;5094289;28;20171;-80
2024/01/21 07:57:05;;;;;;;9.10;5.80;;;2.70;1.00;;;;;;5094755;28;20195;-83
2024/01/21 07:59:30;;;;;;;7.50;5.60;;;2.70;1.00;;;;;;5094642;28;20635;-83
2024/01/21 08:01:56;;;;;;;8.20;6.07;;;2.70;1.00;;;;;;5095142;28;20178;-83
2024/01/21 08:04:22;;;;;;;13.57;6.93;;;2.80;1.00;;;;;;5094181;28;20179;-81
2024/01/21 08:06:47;;;;;;;9.13;6.20;;;2.60;1.00;;;;;;5093635;28;20218;-84
2024/01/21 08:09:13;;;;;;;10.00;6.10;;;2.70;4.30;;;;;;5093408;28;20182;-82
2024/01/21 08:11:38;;;;;;;10.17;7.03;;;2.70;8.20;;;;;;5093418;28;20202;-82
2024/01/21 08:14:04;;;;;;;9.47;6.63;;;2.70;9.40;;;;;;5093658;28;20191;-82
2024/01/21 08:16:30;;;;;;;9.40;6.57;;;2.80;10.90;;;;;;5089534;28;20195;-82
2024/01/21 08:18:55;;;;;;;10.33;6.97;;;2.90;11.40;;;;;;5086542;28;20169;-83
2024/01/21 08:21:21;;;;;;;7.97;5.93;;;3.00;10.70;;;;;;5073704;28;20176;-83
2024/01/21 08:23:47;;;;;;;9.03;6.03;;;2.90;10.90;;;;;;5072238;28;20204;-83
2024/01/21 08:26:13;;;;;;;9.80;6.60;;;3.00;13.60;;;;;;5073524;28;20834;-81
2024/01/21 08:28:39;;;;;;;10.27;6.33;;;3.10;12.50;;;;;;5072650;28;20176;-83
2024/01/21 08:31:04;;;;;;;8.63;6.57;;;3.20;13.10;;;;;;5074719;28;20278;-81
2024/01/21 08:33:30;;;;;;;8.53;6.40;;;3.20;12.80;;;;;;5072670;28;20172;-83
2024/01/21 08:35:56;;;;;;;7.83;6.20;;;3.20;18.80;;;;;;5074898;28;20713;-82
2024/01/21 08:38:21;;;;;;;8.00;5.83;;;3.20;22.00;;;;;;5074011;28;20183;-81
2024/01/21 08:40:47;;;;;;;9.70;6.47;;;3.20;24.40;;;;;;5087511;28;20631;-85
2024/01/21 08:43:13;;;;;;;9.93;6.47;;;3.20;25.50;;;;;;5092963;28;20263;-83
2024/01/21 08:45:38;;;;;;;7.93;6.33;;;3.20;25.80;;;;;;5104012;28;20172;-82
2024/01/21 08:48:04;;;;;;;10.40;6.20;;;3.20;27.10;;;;;;5104452;28;20168;-83
2024/01/21 08:50:30;;;;;;;8.57;5.93;;;3.30;26.10;;;;;;5094087;28;20245;-84
2024/01/21 08:52:56;;;;;;;11.00;6.30;;;3.30;24.70;;;;;;5093467;28;20262;-81
2024/01/21 08:55:21;;;;;;;9.43;6.03;;;3.40;21.20;;;;;;5090429;28;20186;-84
2024/01/21 08:57:47;;;;;;;7.93;6.00;;;3.40;19.60;;;;;;5092744;28;20783;-83
2024/01/21 09:00:13;;;;;;;9.70;6.33;;;3.50;18.10;;;;;;5092723;28;20170;-83
2024/01/21 09:02:38;;;;;;;9.27;6.63;;;3.60;17.40;;;;;;5091798;28;20179;-81
2024/01/21 09:05:05;;;;;;;8.10;6.47;;;3.60;13.30;;;;;;5092693;28;20172;-81
2024/01/21 09:07:31;;;;;;;7.93;6.13;;;3.70;10.60;;;;;;5092917;28;20207;-83
2024/01/21 09:09:57;;;;;;;8.03;6.10;;;3.80;5.90;;;;;;5092920;28;20168;-83
2024/01/21 09:12:22;;;;;;;8.93;6.17;;;3.80;3.10;;;;;;5092763;28;20259;-81
2024/01/21 09:14:48;;;;;;;7.93;6.00;;;3.80;2.30;;;;;;5092625;28;20523;-81
2024/01/21 09:17:14;;;;;;;8.73;5.77;;;3.80;1.10;;;;;;5092651;28;20199;-81
2024/01/21 09:19:39;;;;;;;7.20;5.67;;;3.90;1.00;;;;;;5093287;28;20168;-81
2024/01/21 09:22:05;;;;;;;8.57;5.93;;;4.00;1.00;;;;;;5092197;28;20172;-82
2024/01/21 09:24:31;;;;;;;10.43;6.77;;;4.00;1.00;;;;;;5092682;28;20713;-83
2024/01/21 09:26:56;;;;;;;8.50;6.07;;;4.00;1.00;;;;;;5078306;28;20226;-86
2024/01/21 09:29:22;;;;;;;8.63;6.37;;;4.00;1.00;;;;;;5081736;28;20230;-84
2024/01/21 09:31:58;;;;;;;10.47;6.27;;;4.00;1.00;;;;;;5072120;28;20199;-84
2024/01/21 09:34:23;;;;;;;9.77;6.57;;;4.10;1.00;;;;;;5070749;28;20167;-85
2024/01/21 09:36:51;;;;;;;8.70;7.03;;;4.10;1.00;;;;;;5070018;28;20708;-83
2024/01/21 09:39:17;;;;;;;10.93;7.07;;;4.20;1.00;;;;;;5070044;28;20172;-85
2024/01/21 09:41:51;;;;;;;8.20;6.30;;;4.30;1.00;;;;;;5072125;28;20221;-83
2024/01/21 09:44:24;;;;;;;11.30;6.97;;;4.30;1.00;;;;;;5072061;28;20233;-83
2024/01/21 09:47:00;;;;;;;9.83;6.27;;;4.40;1.00;;;;;;5070838;28;20291;-82
2024/01/21 09:49:26;;;;;;;10.40;7.10;;;4.40;1.00;;;;;;5072818;28;20228;-84
2024/01/21 09:51:53;;;;;;;9.43;5.70;;;4.40;1.00;;;;;;5071440;28;20634;-83
2024/01/21 09:54:20;;;;;;;8.30;6.10;;;4.40;1.00;;;;;;5071560;28;20184;-84
2024/01/21 09:56:46;;;;;;;7.63;5.70;;;4.40;1.00;;;;;;5073242;28;20262;-83
2024/01/21 09:59:12;;;;;;;8.17;5.73;;;4.40;1.00;;;;;;5072298;28;20298;-84
2024/01/21 10:01:41;;;;;;;8.53;5.73;;;4.60;1.00;;;;;;5071050;28;20202;-84
2024/01/21 10:04:12;;;;;;;7.83;5.23;;;4.40;1.00;;;;;;5071572;28;20175;-83
2024/01/21 10:06:37;;;;;;;6.80;4.97;;;4.40;1.00;;;;;;5071803;28;20204;-83
2024/01/21 10:09:16;;;;;;;6.40;5.10;;;4.40;1.00;;;;;;5073174;28;20176;-83
2024/01/21 10:11:42;;;;;;;7.87;4.97;;;4.40;1.00;;;;;;5072061;28;20182;-83
2024/01/21 10:14:07;;;;;;;9.50;5.80;;;4.40;1.00;;;;;;5071980;28;20168;-81
2024/01/21 10:16:33;;;;;;;7.13;5.37;;;4.50;1.00;;;;;;5071443;28;20242;-82
2024/01/21 10:19:00;;;;;;;9.03;5.87;;;4.50;1.00;;;;;;5072050;28;20172;-83
2024/01/21 10:21:25;;;;;;;8.10;5.10;;;4.70;1.00;;;;;;5071432;28;20267;-82
2024/01/21 10:23:51;;;;;;;7.00;5.43;;;4.60;1.00;;;;;;5074297;28;20200;-83
2024/01/21 10:26:18;;;;;;;9.03;5.87;;;4.70;1.00;;;;;;5075996;28;20262;-85
2024/01/21 10:28:43;;;;;;;11.07;6.30;;;4.70;1.00;;;;;;5073862;28;20172;-82
2024/01/21 10:31:10;;;;;;;7.83;5.40;;;4.70;1.00;;;;;;5071649;28;20226;-84
2024/01/21 10:33:36;;;;;;;6.90;5.37;;;4.70;1.00;;;;;;5071927;28;20229;-84
2024/01/21 10:36:02;;;;;;;8.30;5.50;;;4.70;1.00;;;;;;5071923;28;20180;-84
2024/01/21 10:38:48;;;;;;;7.10;5.67;;;4.80;1.00;;;;;;5073027;28;20255;-84
2024/01/21 10:41:30;;;;;;;7.63;5.90;;;4.90;1.00;;;;;;5071563;28;20627;-82
2024/01/21 10:43:57;;;;;;;7.03;5.30;;;4.90;1.00;;;;;;5071301;28;20531;-84
2024/01/21 10:46:26;;;;;;;7.77;5.23;;;4.90;1.00;;;;;;5071292;28;20222;-83
2024/01/21 10:48:55;;;;;;;9.63;6.00;;;5.10;2.40;;;;;;5071498;28;20596;-83
2024/01/21 10:51:22;;;;;;;8.47;5.63;;;5.10;7.00;;;;;;5072411;28;20183;-83
2024/01/21 10:53:50;;;;;;;8.00;5.83;;;5.20;7.80;;;;;;5071194;28;20168;-82
2024/01/21 10:56:17;;;;;;;6.53;5.43;;;5.00;12.10;;;;;;5071565;28;20214;-82
2024/01/21 10:58:43;;;;;;;7.47;5.40;;;5.20;16.00;;;;;;5071095;28;20242;-83
2024/01/21 11:01:10;;;;;;;7.90;5.90;;;5.20;15.20;;;;;;5071149;28;20172;-83
2024/01/21 11:03:36;;;;;;;9.60;6.67;;;5.10;16.70;;;;;;5071241;28;20176;-81
2024/01/21 11:06:04;;;;;;;8.57;5.90;;;5.20;15.30;;;;;;5071150;28;20756;-85
2024/01/21 11:08:31;;;;;;;8.50;6.23;;;5.30;14.30;;;;;;5075517;28;20188;-84
2024/01/21 11:11:22;;;;;;;8.43;6.00;;;5.40;13.50;;;;;;5076698;28;20175;-83
2024/01/21 11:13:51;;;;;;;8.57;6.30;;;5.20;17.50;;;;;;5076060;28;20267;-83
2024/01/21 11:16:26;;;;;;;8.00;5.17;;;5.20;19.10;;;;;;5075594;28;20168;-83
2024/01/21 11:18:52;;;;;;;9.33;6.20;;;5.30;20.50;;;;;;5076494;28;20175;-84
2024/01/21 11:21:22;;;;;;;8.70;6.30;;;5.30;22.30;;;;;;5075471;28;20187;-85
2024/01/21 11:24:27;;;;;;;8.40;6.40;;;5.30;23.20;;;;;;5075232;28;20230;-84
2024/01/21 11:26:53;;;;;;;9.23;5.63;;;5.30;20.80;;;;;;5045129;28;20219;-82
2024/01/21 11:29:28;;;;;;;6.93;5.60;;;5.30;22.00;;;;;;5076362;28;20650;-83
2024/01/21 11:32:04;;;;;;;6.93;5.20;;;5.30;19.20;;;;;;5077795;28;20539;-84
2024/01/21 11:34:40;;;;;;;9.73;5.70;;;5.30;22.30;;;;;;5081661;28;20176;-82
2024/01/21 11:37:08;;;;;;;8.00;5.97;;;5.30;23.90;;;;;;5084477;28;20182;-84
2024/01/21 11:39:34;;;;;;;8.83;6.57;;;5.30;23.10;;;;;;5077014;28;20168;-83
2024/01/21 11:42:01;;;;;;;8.57;6.40;;;5.40;21.70;;;;;;5076852;28;20233;-83
2024/01/21 11:44:28;;;;;;;9.87;6.63;;;5.30;19.00;;;;;;5074378;28;20168;-84
2024/01/21 11:46:59;;;;;;;8.53;6.43;;;5.30;18.90;;;;;;5074599;28;20208;-84
2024/01/21 11:49:25;;;;;;;8.33;6.70;;;5.30;16.40;;;;;;5074651;28;20178;-84
2024/01/21 11:51:52;;;;;;;11.37;6.20;;;5.20;16.20;;;;;;5074542;28;20168;-84
2024/01/21 11:54:19;;;;;;;8.03;6.30;;;5.20;17.60;;;;;;5074594;28;20183;-83
2024/01/21 11:56:45;;;;;;;8.67;6.40;;;5.30;18.00;;;;;;5073989;28;20191;-82
2024/01/21 11:59:12;;;;;;;10.00;6.67;;;5.40;16.60;;;;;;5074315;28;20178;-85
2024/01/21 12:01:39;;;;;;;7.87;6.30;;;5.30;14.30;;;;;;5075745;28;20172;-83
2024/01/21 12:04:07;;;;;;;10.10;6.47;;;5.20;18.70;;;;;;5084896;28;20179;-84
2024/01/21 12:06:39;;;;;;;10.80;7.13;;;5.30;19.20;;;;;;5078397;28;20208;-85
2024/01/21 12:09:05;;;;;;;9.63;7.17;;;5.30;20.00;;;;;;5075986;28;20580;-85
2024/01/21 12:11:33;;;;;;;9.07;6.83;;;5.30;19.60;;;;;;5074057;28;20176;-84
2024/01/21 12:13:59;;;;;;;9.23;6.30;;;5.30;22.50;;;;;;5074189;28;20175;-83
2024/01/21 12:16:25;;;;;;;7.53;5.37;;;5.40;21.70;;;;;;5074313;28;20168;-84
2024/01/21 12:18:51;;;;;;;9.10;6.37;;;5.50;19.00;;;;;;5073930;28;20667;-84
2024/01/21 12:21:17;;;;;;;7.83;6.27;;;5.50;19.10;;;;;;5075370;28;20169;-85
2024/01/21 12:23:47;;;;;;;11.17;6.63;;;5.40;23.70;;;;;;5074215;28;20173;-84
2024/01/21 12:26:20;;;;;;;8.63;7.20;;;5.30;24.80;;;;;;5073883;28;20253;-86
2024/01/21 12:29:09;;;;;;;10.20;5.93;;;5.30;27.60;;;;;;5074391;28;20179;-82
2024/01/21 12:31:39;;;;;;;7.20;6.17;;;5.30;27.60;;;;;;5075425;28;20172;-84
2024/01/21 12:34:11;;;;;;;8.07;6.53;;;5.30;31.00;;;;;;5073952;28;20255;-84
2024/01/21 12:36:41;;;;;;;8.93;6.33;;;5.30;32.50;;;;;;5074913;28;20209;-82
2024/01/21 12:39:10;;;;;;;7.73;6.07;;;5.30;31.10;;;;;;5075242;28;20169;-83
2024/01/21 12:41:36;;;;;;;8.53;6.23;;;5.40;32.20;;;;;;5074889;28;20660;-85
2024/01/21 12:44:02;;;;;;;9.87;6.27;;;5.40;31.50;;;;;;5073628;28;20172;-83
2024/01/21 12:46:27;;;;;;;8.53;6.07;;;5.40;33.00;;;;;;5073450;28;20287;-85
2024/01/21 12:48:53;;;;;;;10.57;7.07;;;5.40;31.70;;;;;;5073240;28;20182;-85
2024/01/21 12:51:19;;;;;;;9.83;6.40;;;5.40;31.90;;;;;;5073762;28;20196;-85
2024/01/21 12:53:50;;;;;;;9.23;6.47;;;5.50;31.70;;;;;;5073250;28;20516;-83
2024/01/21 12:56:16;;;;;;;11.47;6.97;;;5.40;31.80;;;;;;5073010;28;20172;-83
2024/01/21 12:58:41;;;;;;;8.53;6.03;;;5.50;28.90;;;;;;5073469;28;20321;-84
2024/01/21 13:01:08;;;;;;;10.57;6.53;;;5.50;29.40;;;;;;5073286;28;20172;-84